sensor_id;sensor_type;location;lat;lon;timestamp;P1;durP1;ratioP1;P2;durP2;ratioP2
10191;SDS011;17580;50.850;4.504;2022-11-20T00:01:05;13.73;;;11.73;;
10191;SDS011;17580;50.850;4.504;2022-11-20T00:03:32;14.53;;;12.23;;
10191;SDS011;17580;50.850;4.504;2022-11-20T00:06:00;16.47;;;12.80;;
10191;SDS011;17580;50.850;4.504;2022-11-20T00:08:27;15.97;;;12.47;;
10191;SDS011;17580;50.850;4.504;2022-11-20T00:10:54;15.63;;;12.73;;
10191;SDS011;17580;50.850;4.504;2022-11-20T00:13:21;15.07;;;12.30;;
10191;SDS011;17580;50.850;4.504;2022-11-20T00:15:50;17.00;;;13.27;;
10191;SDS011;17580;50.850;4.504;2022-11-20T00:18:23;17.50;;;13.27;;
10191;SDS011;17580;50.850;4.504;2022-11-20T00:20:50;17.37;;;13.37;;
10191;SDS011;17580;50.850;4.504;2022-11-20T00:23:17;15.70;;;13.07;;
10191;SDS011;17580;50.850;4.504;2022-11-20T00:25:44;16.67;;;12.63;;
10191;SDS011;17580;50.850;4.504;2022-11-20T00:28:11;19.93;;;12.27;;
10191;SDS011;17580;50.850;4.504;2022-11-20T00:30:38;16.77;;;14.10;;
10191;SDS011;17580;50.850;4.504;2022-11-20T00:33:07;18.87;;;13.27;;
10191;SDS011;17580;50.850;4.504;2022-11-20T00:35:34;15.47;;;12.87;;
10191;SDS011;17580;50.850;4.504;2022-11-20T00:38:00;21.67;;;15.30;;
10191;SDS011;17580;50.850;4.504;2022-11-20T00:40:27;17.27;;;13.60;;
10191;SDS011;17580;50.850;4.504;2022-11-20T00:42:54;17.47;;;13.17;;
10191;SDS011;17580;50.850;4.504;2022-11-20T00:45:21;16.03;;;13.23;;
10191;SDS011;17580;50.850;4.504;2022-11-20T00:47:48;17.27;;;13.07;;
10191;SDS011;17580;50.850;4.504;2022-11-20T00:50:17;15.17;;;13.17;;
10191;SDS011;17580;50.850;4.504;2022-11-20T00:52:44;17.80;;;12.80;;
10191;SDS011;17580;50.850;4.504;2022-11-20T00:55:11;19.07;;;14.13;;
10191;SDS011;17580;50.850;4.504;2022-11-20T00:57:38;14.07;;;11.53;;
10191;SDS011;17580;50.850;4.504;2022-11-20T01:00:05;17.97;;;12.93;;
10191;SDS011;17580;50.850;4.504;2022-11-20T01:02:33;19.60;;;12.73;;
10191;SDS011;17580;50.850;4.504;2022-11-20T01:05:00;16.30;;;12.57;;
10191;SDS011;17580;50.850;4.504;2022-11-20T01:07:28;15.27;;;12.07;;
10191;SDS011;17580;50.850;4.504;2022-11-20T01:09:55;22.67;;;13.83;;
10191;SDS011;17580;50.850;4.504;2022-11-20T01:12:22;19.40;;;13.33;;
10191;SDS011;17580;50.850;4.504;2022-11-20T01:14:49;18.00;;;14.03;;
10191;SDS011;17580;50.850;4.504;2022-11-20T01:17:16;14.93;;;13.17;;
10191;SDS011;17580;50.850;4.504;2022-11-20T01:19:43;21.00;;;14.60;;
10191;SDS011;17580;50.850;4.504;2022-11-20T01:22:10;20.13;;;15.10;;
10191;SDS011;17580;50.850;4.504;2022-11-20T01:24:38;20.37;;;15.30;;
10191;SDS011;17580;50.850;4.504;2022-11-20T01:27:05;18.50;;;13.47;;
10191;SDS011;17580;50.850;4.504;2022-11-20T01:29:32;21.57;;;14.10;;
10191;SDS011;17580;50.850;4.504;2022-11-20T01:31:59;22.67;;;14.63;;
10191;SDS011;17580;50.850;4.504;2022-11-20T01:34:26;21.27;;;14.27;;
10191;SDS011;17580;50.850;4.504;2022-11-20T01:36:53;21.20;;;14.73;;
10191;SDS011;17580;50.850;4.504;2022-11-20T01:39:21;19.30;;;14.90;;
10191;SDS011;17580;50.850;4.504;2022-11-20T01:41:50;15.90;;;12.87;;
10191;SDS011;17580;50.850;4.504;2022-11-20T01:44:45;20.40;;;13.23;;
10191;SDS011;17580;50.850;4.504;2022-11-20T01:47:17;16.97;;;13.27;;
10191;SDS011;17580;50.850;4.504;2022-11-20T01:49:48;20.13;;;13.37;;
10191;SDS011;17580;50.850;4.504;2022-11-20T01:52:19;16.77;;;11.50;;
10191;SDS011;17580;50.850;4.504;2022-11-20T01:54:49;15.93;;;12.20;;
10191;SDS011;17580;50.850;4.504;2022-11-20T01:57:21;19.47;;;14.27;;
10191;SDS011;17580;50.850;4.504;2022-11-20T01:59:52;14.57;;;12.50;;
10191;SDS011;17580;50.850;4.504;2022-11-20T02:02:23;18.43;;;13.23;;
10191;SDS011;17580;50.850;4.504;2022-11-20T02:04:50;15.30;;;13.03;;
10191;SDS011;17580;50.850;4.504;2022-11-20T02:07:19;20.67;;;13.93;;
10191;SDS011;17580;50.850;4.504;2022-11-20T02:09:48;16.03;;;12.63;;
10191;SDS011;17580;50.850;4.504;2022-11-20T02:12:15;20.63;;;13.87;;
10191;SDS011;17580;50.850;4.504;2022-11-20T02:14:58;17.53;;;13.33;;
10191;SDS011;17580;50.850;4.504;2022-11-20T02:17:25;19.77;;;14.17;;
10191;SDS011;17580;50.850;4.504;2022-11-20T02:19:52;19.83;;;15.63;;
10191;SDS011;17580;50.850;4.504;2022-11-20T02:22:21;17.77;;;13.70;;
10191;SDS011;17580;50.850;4.504;2022-11-20T02:24:56;17.40;;;12.67;;
10191;SDS011;17580;50.850;4.504;2022-11-20T02:27:27;19.63;;;14.27;;
10191;SDS011;17580;50.850;4.504;2022-11-20T02:29:56;18.93;;;13.70;;
10191;SDS011;17580;50.850;4.504;2022-11-20T02:32:27;17.37;;;12.80;;
10191;SDS011;17580;50.850;4.504;2022-11-20T02:34:55;19.13;;;13.67;;
10191;SDS011;17580;50.850;4.504;2022-11-20T02:37:23;18.90;;;13.63;;
10191;SDS011;17580;50.850;4.504;2022-11-20T02:39:58;22.50;;;14.90;;
10191;SDS011;17580;50.850;4.504;2022-11-20T02:42:25;19.53;;;14.30;;
10191;SDS011;17580;50.850;4.504;2022-11-20T02:44:51;24.47;;;16.00;;
10191;SDS011;17580;50.850;4.504;2022-11-20T02:47:18;19.73;;;14.50;;
10191;SDS011;17580;50.850;4.504;2022-11-20T02:49:45;20.23;;;12.93;;
10191;SDS011;17580;50.850;4.504;2022-11-20T02:52:12;22.33;;;14.10;;
10191;SDS011;17580;50.850;4.504;2022-11-20T02:54:39;23.33;;;15.13;;
10191;SDS011;17580;50.850;4.504;2022-11-20T02:57:07;19.93;;;13.67;;
10191;SDS011;17580;50.850;4.504;2022-11-20T02:59:34;18.90;;;13.90;;
10191;SDS011;17580;50.850;4.504;2022-11-20T03:02:01;20.47;;;15.07;;
10191;SDS011;17580;50.850;4.504;2022-11-20T03:04:29;18.50;;;12.90;;
10191;SDS011;17580;50.850;4.504;2022-11-20T03:06:56;19.50;;;13.63;;
10191;SDS011;17580;50.850;4.504;2022-11-20T03:09:23;20.33;;;13.77;;
10191;SDS011;17580;50.850;4.504;2022-11-20T03:11:50;27.50;;;15.87;;
10191;SDS011;17580;50.850;4.504;2022-11-20T03:14:19;23.00;;;15.93;;
10191;SDS011;17580;50.850;4.504;2022-11-20T03:16:46;20.40;;;14.47;;
10191;SDS011;17580;50.850;4.504;2022-11-20T03:19:12;26.60;;;17.03;;
10191;SDS011;17580;50.850;4.504;2022-11-20T03:21:39;21.50;;;14.80;;
10191;SDS011;17580;50.850;4.504;2022-11-20T03:24:07;19.20;;;14.07;;
10191;SDS011;17580;50.850;4.504;2022-11-20T03:26:34;20.13;;;14.67;;
10191;SDS011;17580;50.850;4.504;2022-11-20T03:29:02;22.37;;;14.83;;
10191;SDS011;17580;50.850;4.504;2022-11-20T03:31:32;21.20;;;14.53;;
10191;SDS011;17580;50.850;4.504;2022-11-20T03:34:00;21.60;;;15.03;;
10191;SDS011;17580;50.850;4.504;2022-11-20T03:36:28;21.47;;;13.97;;
10191;SDS011;17580;50.850;4.504;2022-11-20T03:38:56;20.20;;;14.00;;
10191;SDS011;17580;50.850;4.504;2022-11-20T03:41:24;20.83;;;13.27;;
10191;SDS011;17580;50.850;4.504;2022-11-20T03:43:52;19.57;;;13.07;;
10191;SDS011;17580;50.850;4.504;2022-11-20T03:46:20;19.03;;;12.63;;
10191;SDS011;17580;50.850;4.504;2022-11-20T03:48:50;15.97;;;12.20;;
10191;SDS011;17580;50.850;4.504;2022-11-20T03:51:19;13.27;;;9.57;;
10191;SDS011;17580;50.850;4.504;2022-11-20T03:53:47;16.40;;;11.27;;
10191;SDS011;17580;50.850;4.504;2022-11-20T03:56:16;14.10;;;10.17;;
10191;SDS011;17580;50.850;4.504;2022-11-20T03:58:44;17.37;;;12.27;;
10191;SDS011;17580;50.850;4.504;2022-11-20T04:01:12;15.37;;;10.20;;
10191;SDS011;17580;50.850;4.504;2022-11-20T04:03:40;16.93;;;11.57;;
10191;SDS011;17580;50.850;4.504;2022-11-20T04:06:10;14.63;;;11.40;;
10191;SDS011;17580;50.850;4.504;2022-11-20T04:08:38;13.70;;;9.57;;
10191;SDS011;17580;50.850;4.504;2022-11-20T04:11:09;13.53;;;10.13;;
10191;SDS011;17580;50.850;4.504;2022-11-20T04:13:37;14.50;;;10.30;;
10191;SDS011;17580;50.850;4.504;2022-11-20T04:16:04;12.33;;;9.70;;
10191;SDS011;17580;50.850;4.504;2022-11-20T04:18:32;15.17;;;10.23;;
10191;SDS011;17580;50.850;4.504;2022-11-20T04:20:59;16.10;;;10.80;;
10191;SDS011;17580;50.850;4.504;2022-11-20T04:23:28;12.80;;;9.80;;
10191;SDS011;17580;50.850;4.504;2022-11-20T04:26:00;14.47;;;9.97;;
10191;SDS011;17580;50.850;4.504;2022-11-20T04:28:28;14.83;;;9.60;;
10191;SDS011;17580;50.850;4.504;2022-11-20T04:31:00;12.60;;;9.43;;
10191;SDS011;17580;50.850;4.504;2022-11-20T04:33:29;14.93;;;10.87;;
10191;SDS011;17580;50.850;4.504;2022-11-20T04:35:59;13.77;;;9.70;;
10191;SDS011;17580;50.850;4.504;2022-11-20T04:38:28;13.37;;;10.30;;
10191;SDS011;17580;50.850;4.504;2022-11-20T04:40:56;13.20;;;9.57;;
10191;SDS011;17580;50.850;4.504;2022-11-20T04:43:24;14.17;;;10.03;;
10191;SDS011;17580;50.850;4.504;2022-11-20T04:45:51;13.73;;;10.97;;
10191;SDS011;17580;50.850;4.504;2022-11-20T04:48:18;14.87;;;10.50;;
10191;SDS011;17580;50.850;4.504;2022-11-20T04:50:45;14.37;;;10.03;;
10191;SDS011;17580;50.850;4.504;2022-11-20T04:53:12;14.30;;;10.87;;
10191;SDS011;17580;50.850;4.504;2022-11-20T04:55:41;16.43;;;10.83;;
10191;SDS011;17580;50.850;4.504;2022-11-20T04:58:08;16.30;;;11.53;;
10191;SDS011;17580;50.850;4.504;2022-11-20T05:00:35;14.87;;;10.50;;
10191;SDS011;17580;50.850;4.504;2022-11-20T05:03:02;17.60;;;12.40;;
10191;SDS011;17580;50.850;4.504;2022-11-20T05:05:29;14.50;;;11.10;;
10191;SDS011;17580;50.850;4.504;2022-11-20T05:07:56;17.23;;;12.60;;
10191;SDS011;17580;50.850;4.504;2022-11-20T05:10:23;17.60;;;11.53;;
10191;SDS011;17580;50.850;4.504;2022-11-20T05:12:51;18.13;;;11.23;;
10191;SDS011;17580;50.850;4.504;2022-11-20T05:15:19;17.90;;;12.37;;
10191;SDS011;17580;50.850;4.504;2022-11-20T05:17:49;17.57;;;13.03;;
10191;SDS011;17580;50.850;4.504;2022-11-20T05:20:16;19.63;;;12.80;;
10191;SDS011;17580;50.850;4.504;2022-11-20T05:22:44;17.10;;;12.40;;
10191;SDS011;17580;50.850;4.504;2022-11-20T05:25:11;21.03;;;13.17;;
10191;SDS011;17580;50.850;4.504;2022-11-20T05:27:38;18.77;;;12.80;;
10191;SDS011;17580;50.850;4.504;2022-11-20T05:30:07;17.33;;;12.10;;
10191;SDS011;17580;50.850;4.504;2022-11-20T05:32:35;20.03;;;13.67;;
10191;SDS011;17580;50.850;4.504;2022-11-20T05:35:02;23.70;;;13.50;;
10191;SDS011;17580;50.850;4.504;2022-11-20T05:37:29;20.63;;;13.33;;
10191;SDS011;17580;50.850;4.504;2022-11-20T05:39:56;18.43;;;11.73;;
10191;SDS011;17580;50.850;4.504;2022-11-20T05:42:23;20.03;;;13.27;;
10191;SDS011;17580;50.850;4.504;2022-11-20T05:44:56;18.40;;;12.30;;
10191;SDS011;17580;50.850;4.504;2022-11-20T05:47:24;23.47;;;13.83;;
10191;SDS011;17580;50.850;4.504;2022-11-20T05:49:52;22.13;;;13.60;;
10191;SDS011;17580;50.850;4.504;2022-11-20T05:52:19;22.60;;;13.90;;
10191;SDS011;17580;50.850;4.504;2022-11-20T05:54:46;22.57;;;12.57;;
10191;SDS011;17580;50.850;4.504;2022-11-20T05:57:13;20.73;;;12.57;;
10191;SDS011;17580;50.850;4.504;2022-11-20T05:59:40;28.63;;;16.47;;
10191;SDS011;17580;50.850;4.504;2022-11-20T06:02:07;21.87;;;13.03;;
10191;SDS011;17580;50.850;4.504;2022-11-20T06:04:35;25.20;;;15.33;;
10191;SDS011;17580;50.850;4.504;2022-11-20T06:07:02;27.70;;;15.20;;
10191;SDS011;17580;50.850;4.504;2022-11-20T06:09:30;23.57;;;14.63;;
10191;SDS011;17580;50.850;4.504;2022-11-20T06:11:58;28.23;;;15.07;;
10191;SDS011;17580;50.850;4.504;2022-11-20T06:14:24;27.37;;;14.37;;
10191;SDS011;17580;50.850;4.504;2022-11-20T06:16:51;26.23;;;14.80;;
10191;SDS011;17580;50.850;4.504;2022-11-20T06:19:18;23.93;;;13.37;;
10191;SDS011;17580;50.850;4.504;2022-11-20T06:21:48;27.43;;;13.87;;
10191;SDS011;17580;50.850;4.504;2022-11-20T06:24:15;23.20;;;13.30;;
10191;SDS011;17580;50.850;4.504;2022-11-20T06:26:43;24.53;;;14.30;;
10191;SDS011;17580;50.850;4.504;2022-11-20T06:29:10;23.57;;;14.03;;
10191;SDS011;17580;50.850;4.504;2022-11-20T06:31:37;28.20;;;15.40;;
10191;SDS011;17580;50.850;4.504;2022-11-20T06:34:04;24.30;;;13.47;;
10191;SDS011;17580;50.850;4.504;2022-11-20T06:36:31;30.27;;;14.63;;
10191;SDS011;17580;50.850;4.504;2022-11-20T06:39:00;26.27;;;14.10;;
10191;SDS011;17580;50.850;4.504;2022-11-20T06:41:28;32.43;;;15.30;;
10191;SDS011;17580;50.850;4.504;2022-11-20T06:43:55;25.80;;;14.43;;
10191;SDS011;17580;50.850;4.504;2022-11-20T06:46:22;29.10;;;14.93;;
10191;SDS011;17580;50.850;4.504;2022-11-20T06:48:49;30.10;;;15.77;;
10191;SDS011;17580;50.850;4.504;2022-11-20T06:51:16;26.57;;;13.97;;
10191;SDS011;17580;50.850;4.504;2022-11-20T06:53:43;26.53;;;14.60;;
10191;SDS011;17580;50.850;4.504;2022-11-20T06:56:12;33.60;;;16.93;;
10191;SDS011;17580;50.850;4.504;2022-11-20T06:58:39;26.40;;;13.90;;
10191;SDS011;17580;50.850;4.504;2022-11-20T07:01:06;23.43;;;13.63;;
10191;SDS011;17580;50.850;4.504;2022-11-20T07:03:35;24.93;;;14.20;;
10191;SDS011;17580;50.850;4.504;2022-11-20T07:06:03;23.20;;;13.33;;
10191;SDS011;17580;50.850;4.504;2022-11-20T07:08:31;25.80;;;13.40;;
10191;SDS011;17580;50.850;4.504;2022-11-20T07:10:59;27.37;;;14.73;;
10191;SDS011;17580;50.850;4.504;2022-11-20T07:13:28;22.03;;;13.23;;
10191;SDS011;17580;50.850;4.504;2022-11-20T07:15:59;28.23;;;14.77;;
10191;SDS011;17580;50.850;4.504;2022-11-20T07:18:27;26.67;;;14.40;;
10191;SDS011;17580;50.850;4.504;2022-11-20T07:20:54;32.43;;;16.47;;
10191;SDS011;17580;50.850;4.504;2022-11-20T07:23:21;28.73;;;15.93;;
10191;SDS011;17580;50.850;4.504;2022-11-20T07:25:48;28.23;;;15.00;;
10191;SDS011;17580;50.850;4.504;2022-11-20T07:28:14;31.17;;;16.67;;
10191;SDS011;17580;50.850;4.504;2022-11-20T07:30:43;28.47;;;14.83;;
10191;SDS011;17580;50.850;4.504;2022-11-20T07:33:16;29.00;;;15.57;;
10191;SDS011;17580;50.850;4.504;2022-11-20T07:35:43;29.83;;;15.20;;
10191;SDS011;17580;50.850;4.504;2022-11-20T07:38:10;33.60;;;17.47;;
10191;SDS011;17580;50.850;4.504;2022-11-20T07:40:37;36.80;;;18.47;;
10191;SDS011;17580;50.850;4.504;2022-11-20T07:43:04;26.90;;;14.87;;
10191;SDS011;17580;50.850;4.504;2022-11-20T07:45:31;34.57;;;17.40;;
10191;SDS011;17580;50.850;4.504;2022-11-20T07:47:59;29.37;;;15.90;;
10191;SDS011;17580;50.850;4.504;2022-11-20T07:50:26;33.10;;;15.67;;
10191;SDS011;17580;50.850;4.504;2022-11-20T07:52:59;32.07;;;16.27;;
10191;SDS011;17580;50.850;4.504;2022-11-20T07:55:27;30.73;;;17.73;;
10191;SDS011;17580;50.850;4.504;2022-11-20T07:57:54;40.20;;;21.73;;
10191;SDS011;17580;50.850;4.504;2022-11-20T08:00:22;38.80;;;19.70;;
10191;SDS011;17580;50.850;4.504;2022-11-20T08:02:49;32.70;;;17.37;;
10191;SDS011;17580;50.850;4.504;2022-11-20T08:05:18;30.90;;;15.87;;
10191;SDS011;17580;50.850;4.504;2022-11-20T08:07:45;33.43;;;17.20;;
10191;SDS011;17580;50.850;4.504;2022-11-20T08:10:12;38.13;;;18.90;;
10191;SDS011;17580;50.850;4.504;2022-11-20T08:12:43;32.17;;;16.30;;
10191;SDS011;17580;50.850;4.504;2022-11-20T08:15:28;31.33;;;17.53;;
10191;SDS011;17580;50.850;4.504;2022-11-20T08:17:59;31.43;;;16.53;;
10191;SDS011;17580;50.850;4.504;2022-11-20T08:20:28;30.67;;;17.20;;
10191;SDS011;17580;50.850;4.504;2022-11-20T08:22:57;31.70;;;14.93;;
10191;SDS011;17580;50.850;4.504;2022-11-20T08:25:25;34.30;;;18.13;;
10191;SDS011;17580;50.850;4.504;2022-11-20T08:27:52;25.77;;;14.90;;
10191;SDS011;17580;50.850;4.504;2022-11-20T08:30:19;30.40;;;15.73;;
10191;SDS011;17580;50.850;4.504;2022-11-20T08:32:46;28.73;;;14.60;;
10191;SDS011;17580;50.850;4.504;2022-11-20T08:35:13;34.43;;;17.40;;
10191;SDS011;17580;50.850;4.504;2022-11-20T08:37:45;28.17;;;16.23;;
10191;SDS011;17580;50.850;4.504;2022-11-20T08:40:12;27.27;;;14.73;;
10191;SDS011;17580;50.850;4.504;2022-11-20T08:42:45;32.27;;;16.70;;
10191;SDS011;17580;50.850;4.504;2022-11-20T08:45:13;30.20;;;14.50;;
10191;SDS011;17580;50.850;4.504;2022-11-20T08:47:40;30.63;;;15.33;;
10191;SDS011;17580;50.850;4.504;2022-11-20T08:50:08;28.73;;;16.07;;
10191;SDS011;17580;50.850;4.504;2022-11-20T08:52:35;31.60;;;16.90;;
10191;SDS011;17580;50.850;4.504;2022-11-20T08:55:05;31.90;;;15.53;;
10191;SDS011;17580;50.850;4.504;2022-11-20T08:57:32;36.73;;;18.83;;
10191;SDS011;17580;50.850;4.504;2022-11-20T09:00:00;25.47;;;13.57;;
10191;SDS011;17580;50.850;4.504;2022-11-20T09:02:27;28.87;;;14.17;;
10191;SDS011;17580;50.850;4.504;2022-11-20T09:04:54;24.77;;;13.80;;
10191;SDS011;17580;50.850;4.504;2022-11-20T09:07:21;31.63;;;16.07;;
10191;SDS011;17580;50.850;4.504;2022-11-20T09:09:48;24.70;;;14.13;;
10191;SDS011;17580;50.850;4.504;2022-11-20T09:12:16;26.13;;;12.67;;
10191;SDS011;17580;50.850;4.504;2022-11-20T09:14:43;22.83;;;12.97;;
10191;SDS011;17580;50.850;4.504;2022-11-20T09:17:10;28.00;;;15.37;;
10191;SDS011;17580;50.850;4.504;2022-11-20T09:19:38;26.23;;;14.77;;
10191;SDS011;17580;50.850;4.504;2022-11-20T09:22:06;23.43;;;15.17;;
10191;SDS011;17580;50.850;4.504;2022-11-20T09:24:33;22.23;;;12.97;;
10191;SDS011;17580;50.850;4.504;2022-11-20T09:27:03;25.77;;;14.97;;
10191;SDS011;17580;50.850;4.504;2022-11-20T09:29:32;20.27;;;12.70;;
10191;SDS011;17580;50.850;4.504;2022-11-20T09:31:59;23.17;;;12.10;;
10191;SDS011;17580;50.850;4.504;2022-11-20T09:34:26;22.30;;;13.23;;
10191;SDS011;17580;50.850;4.504;2022-11-20T09:36:53;22.90;;;13.33;;
10191;SDS011;17580;50.850;4.504;2022-11-20T09:39:20;23.10;;;13.87;;
10191;SDS011;17580;50.850;4.504;2022-11-20T09:41:51;28.40;;;16.17;;
10191;SDS011;17580;50.850;4.504;2022-11-20T09:44:54;20.23;;;13.33;;
10191;SDS011;17580;50.850;4.504;2022-11-20T09:47:34;25.73;;;16.13;;
10191;SDS011;17580;50.850;4.504;2022-11-20T09:50:16;18.10;;;11.70;;
10191;SDS011;17580;50.850;4.504;2022-11-20T09:52:52;20.93;;;12.60;;
10191;SDS011;17580;50.850;4.504;2022-11-20T09:55:35;22.13;;;12.70;;
10191;SDS011;17580;50.850;4.504;2022-11-20T09:58:04;19.97;;;12.07;;
10191;SDS011;17580;50.850;4.504;2022-11-20T10:00:35;18.50;;;12.40;;
10191;SDS011;17580;50.850;4.504;2022-11-20T10:03:03;22.63;;;13.00;;
10191;SDS011;17580;50.850;4.504;2022-11-20T10:05:40;21.97;;;11.87;;
10191;SDS011;17580;50.850;4.504;2022-11-20T10:08:11;18.53;;;11.47;;
10191;SDS011;17580;50.850;4.504;2022-11-20T10:10:45;19.30;;;11.23;;
10191;SDS011;17580;50.850;4.504;2022-11-20T10:13:20;16.73;;;10.83;;
10191;SDS011;17580;50.850;4.504;2022-11-20T10:16:03;21.23;;;10.80;;
10191;SDS011;17580;50.850;4.504;2022-11-20T10:18:44;16.17;;;11.17;;
10191;SDS011;17580;50.850;4.504;2022-11-20T10:21:23;15.57;;;11.00;;
10191;SDS011;17580;50.850;4.504;2022-11-20T10:24:07;14.63;;;10.30;;
10191;SDS011;17580;50.850;4.504;2022-11-20T10:26:51;21.00;;;10.00;;
10191;SDS011;17580;50.850;4.504;2022-11-20T10:29:26;16.83;;;11.03;;
10191;SDS011;17580;50.850;4.504;2022-11-20T10:32:01;16.53;;;9.63;;
10191;SDS011;17580;50.850;4.504;2022-11-20T10:34:31;16.27;;;9.73;;
10191;SDS011;17580;50.850;4.504;2022-11-20T10:37:09;14.63;;;8.80;;
10191;SDS011;17580;50.850;4.504;2022-11-20T10:39:41;13.70;;;8.87;;
10191;SDS011;17580;50.850;4.504;2022-11-20T10:42:17;14.13;;;8.67;;
10191;SDS011;17580;50.850;4.504;2022-11-20T10:44:58;16.80;;;9.70;;
10191;SDS011;17580;50.850;4.504;2022-11-20T10:47:39;13.60;;;8.83;;
10191;SDS011;17580;50.850;4.504;2022-11-20T10:50:09;14.97;;;8.33;;
10191;SDS011;17580;50.850;4.504;2022-11-20T10:52:42;11.23;;;9.13;;
10191;SDS011;17580;50.850;4.504;2022-11-20T10:55:22;9.70;;;6.77;;
10191;SDS011;17580;50.850;4.504;2022-11-20T10:57:58;10.77;;;6.67;;
10191;SDS011;17580;50.850;4.504;2022-11-20T11:00:32;10.00;;;6.03;;
10191;SDS011;17580;50.850;4.504;2022-11-20T11:03:01;6.60;;;5.27;;
10191;SDS011;17580;50.850;4.504;2022-11-20T11:05:33;5.87;;;4.23;;
10191;SDS011;17580;50.850;4.504;2022-11-20T11:08:04;8.97;;;5.87;;
10191;SDS011;17580;50.850;4.504;2022-11-20T11:10:37;9.37;;;5.40;;
10191;SDS011;17580;50.850;4.504;2022-11-20T11:13:22;5.37;;;3.47;;
10191;SDS011;17580;50.850;4.504;2022-11-20T11:15:50;7.80;;;4.43;;
10191;SDS011;17580;50.850;4.504;2022-11-20T11:18:24;5.50;;;3.37;;
10191;SDS011;17580;50.850;4.504;2022-11-20T11:20:53;4.93;;;3.70;;
10191;SDS011;17580;50.850;4.504;2022-11-20T11:23:34;3.57;;;3.27;;
10191;SDS011;17580;50.850;4.504;2022-11-20T11:26:03;4.27;;;3.07;;
10191;SDS011;17580;50.850;4.504;2022-11-20T11:28:31;4.57;;;3.33;;
10191;SDS011;17580;50.850;4.504;2022-11-20T11:30:59;3.20;;;2.90;;
10191;SDS011;17580;50.850;4.504;2022-11-20T11:33:28;4.13;;;2.90;;
10191;SDS011;17580;50.850;4.504;2022-11-20T11:35:56;3.73;;;2.20;;
10191;SDS011;17580;50.850;4.504;2022-11-20T11:38:28;3.03;;;2.27;;
10191;SDS011;17580;50.850;4.504;2022-11-20T11:40:57;4.33;;;2.50;;
10191;SDS011;17580;50.850;4.504;2022-11-20T11:43:25;4.33;;;2.70;;
10191;SDS011;17580;50.850;4.504;2022-11-20T11:49:00;4.83;;;2.20;;
10191;SDS011;17580;50.850;4.504;2022-11-20T11:51:37;3.50;;;2.93;;
10191;SDS011;17580;50.850;4.504;2022-11-20T11:54:14;3.00;;;2.30;;
10191;SDS011;17580;50.850;4.504;2022-11-20T11:56:44;2.27;;;2.00;;
10191;SDS011;17580;50.850;4.504;2022-11-20T11:59:12;5.33;;;3.10;;
10191;SDS011;17580;50.850;4.504;2022-11-20T12:01:51;7.10;;;2.80;;
10191;SDS011;17580;50.850;4.504;2022-11-20T12:04:28;1.93;;;1.80;;
10191;SDS011;17580;50.850;4.504;2022-11-20T12:07:08;4.23;;;1.90;;
10191;SDS011;17580;50.850;4.504;2022-11-20T12:09:41;3.37;;;2.40;;
10191;SDS011;17580;50.850;4.504;2022-11-20T12:12:20;2.40;;;2.20;;
10191;SDS011;17580;50.850;4.504;2022-11-20T12:14:51;3.10;;;2.10;;
10191;SDS011;17580;50.850;4.504;2022-11-20T12:17:20;5.07;;;2.40;;
10191;SDS011;17580;50.850;4.504;2022-11-20T12:19:49;4.80;;;2.10;;
10191;SDS011;17580;50.850;4.504;2022-11-20T12:22:18;3.70;;;2.03;;
10191;SDS011;17580;50.850;4.504;2022-11-20T12:24:54;5.07;;;1.60;;
10191;SDS011;17580;50.850;4.504;2022-11-20T12:27:35;5.37;;;2.53;;
10191;SDS011;17580;50.850;4.504;2022-11-20T12:30:09;3.70;;;2.80;;
10191;SDS011;17580;50.850;4.504;2022-11-20T12:32:45;6.00;;;2.97;;
10191;SDS011;17580;50.850;4.504;2022-11-20T12:35:42;6.23;;;2.70;;
10191;SDS011;17580;50.850;4.504;2022-11-20T12:38:32;2.40;;;2.20;;
10191;SDS011;17580;50.850;4.504;2022-11-20T12:41:12;7.10;;;2.27;;
10191;SDS011;17580;50.850;4.504;2022-11-20T12:44:06;5.10;;;2.10;;
10191;SDS011;17580;50.850;4.504;2022-11-20T12:47:02;2.57;;;2.10;;
10191;SDS011;17580;50.850;4.504;2022-11-20T12:49:41;3.10;;;2.37;;
10191;SDS011;17580;50.850;4.504;2022-11-20T12:52:22;2.70;;;2.10;;
10191;SDS011;17580;50.850;4.504;2022-11-20T12:55:08;2.50;;;2.03;;
10191;SDS011;17580;50.850;4.504;2022-11-20T12:57:49;2.73;;;2.50;;
10191;SDS011;17580;50.850;4.504;2022-11-20T13:00:20;2.47;;;1.97;;
10191;SDS011;17580;50.850;4.504;2022-11-20T13:03:00;4.03;;;2.27;;
10191;SDS011;17580;50.850;4.504;2022-11-20T13:05:55;4.30;;;2.27;;
10191;SDS011;17580;50.850;4.504;2022-11-20T13:08:30;3.60;;;2.10;;
10191;SDS011;17580;50.850;4.504;2022-11-20T13:11:02;3.20;;;2.53;;
10191;SDS011;17580;50.850;4.504;2022-11-20T13:13:39;8.27;;;4.13;;
10191;SDS011;17580;50.850;4.504;2022-11-20T13:16:15;4.33;;;2.83;;
10191;SDS011;17580;50.850;4.504;2022-11-20T13:18:45;4.07;;;3.57;;
10191;SDS011;17580;50.850;4.504;2022-11-20T13:21:16;8.27;;;3.37;;
10191;SDS011;17580;50.850;4.504;2022-11-20T13:23:45;3.27;;;2.40;;
10191;SDS011;17580;50.850;4.504;2022-11-20T13:26:17;4.97;;;3.60;;
10191;SDS011;17580;50.850;4.504;2022-11-20T13:28:46;3.57;;;3.27;;
10191;SDS011;17580;50.850;4.504;2022-11-20T13:31:27;4.33;;;2.47;;
10191;SDS011;17580;50.850;4.504;2022-11-20T13:33:56;5.10;;;4.17;;
10191;SDS011;17580;50.850;4.504;2022-11-20T13:36:26;3.20;;;2.90;;
10191;SDS011;17580;50.850;4.504;2022-11-20T13:38:56;4.93;;;3.27;;
10191;SDS011;17580;50.850;4.504;2022-11-20T13:41:24;2.87;;;2.60;;
10191;SDS011;17580;50.850;4.504;2022-11-20T13:44:04;3.73;;;2.40;;
10191;SDS011;17580;50.850;4.504;2022-11-20T13:46:37;3.40;;;2.70;;
10191;SDS011;17580;50.850;4.504;2022-11-20T13:49:09;2.90;;;2.23;;
10191;SDS011;17580;50.850;4.504;2022-11-20T13:51:43;2.50;;;2.23;;
10191;SDS011;17580;50.850;4.504;2022-11-20T14:00:24;3.27;;;2.53;;
10191;SDS011;17580;50.850;4.504;2022-11-20T14:02:57;2.77;;;2.27;;
10191;SDS011;17580;50.850;4.504;2022-11-20T14:05:28;3.00;;;2.00;;
10191;SDS011;17580;50.850;4.504;2022-11-20T14:07:59;2.33;;;2.20;;
10191;SDS011;17580;50.850;4.504;2022-11-20T14:10:29;2.03;;;1.90;;
10191;SDS011;17580;50.850;4.504;2022-11-20T14:12:58;2.50;;;2.30;;
10191;SDS011;17580;50.850;4.504;2022-11-20T14:15:35;4.50;;;2.47;;
10191;SDS011;17580;50.850;4.504;2022-11-20T14:18:11;2.53;;;2.03;;
10191;SDS011;17580;50.850;4.504;2022-11-20T14:20:39;3.23;;;2.13;;
10191;SDS011;17580;50.850;4.504;2022-11-20T14:23:08;2.40;;;2.20;;
10191;SDS011;17580;50.850;4.504;2022-11-20T14:25:36;2.37;;;2.00;;
10191;SDS011;17580;50.850;4.504;2022-11-20T14:28:11;2.83;;;2.27;;
10191;SDS011;17580;50.850;4.504;2022-11-20T14:30:50;2.87;;;2.47;;
10191;SDS011;17580;50.850;4.504;2022-11-20T14:33:18;2.00;;;1.77;;
10191;SDS011;17580;50.850;4.504;2022-11-20T14:35:50;2.70;;;2.20;;
10191;SDS011;17580;50.850;4.504;2022-11-20T14:38:21;2.43;;;1.83;;
10191;SDS011;17580;50.850;4.504;2022-11-20T14:40:50;1.97;;;1.87;;
10191;SDS011;17580;50.850;4.504;2022-11-20T14:43:21;1.93;;;1.83;;
10191;SDS011;17580;50.850;4.504;2022-11-20T14:45:52;2.27;;;2.10;;
10191;SDS011;17580;50.850;4.504;2022-11-20T14:48:24;3.30;;;2.10;;
10191;SDS011;17580;50.850;4.504;2022-11-20T14:50:56;2.33;;;2.07;;
10191;SDS011;17580;50.850;4.504;2022-11-20T14:53:23;2.20;;;2.00;;
10191;SDS011;17580;50.850;4.504;2022-11-20T14:55:55;4.07;;;2.50;;